Time;durP1;ratioP1;P1;durP2;ratioP2;P2;SDS_P1;SDS_P2;PMS_P1;PMS_P2;Temp;Humidity;BMP_temperature;BMP_pressure;BME280_temperature;BME280_humidity;BME280_pressure;Samples;Min_cycle;Max_cycle;Signal;HPM_P1;HPM_P2
2021/04/15 00:02:25;;;;;;;10.00;7.73;;;2.70;99.90;;;;;;5028306;28;20703;-59
2021/04/15 00:04:57;;;;;;;9.00;8.10;;;2.70;99.90;;;;;;5024516;28;20653;-58
2021/04/15 00:07:23;;;;;;;8.57;7.60;;;2.70;99.90;;;;;;5024485;28;20612;-59
2021/04/15 00:09:51;;;;;;;8.47;7.60;;;2.60;99.90;;;;;;4997683;28;20671;-58
2021/04/15 00:12:17;;;;;;;13.63;8.33;;;2.60;99.90;;;;;;5016405;28;20617;-59
2021/04/15 00:14:47;;;;;;;10.37;9.37;;;2.60;99.90;;;;;;5020637;28;20646;-59
2021/04/15 00:17:15;;;;;;;11.27;9.33;;;2.60;99.90;;;;;;5006148;28;20216;-59
2021/04/15 00:19:43;;;;;;;8.33;7.10;;;2.60;99.90;;;;;;5017944;28;21243;-59
2021/04/15 00:22:16;;;;;;;8.60;7.70;;;2.60;99.90;;;;;;5021140;28;20979;-59
2021/04/15 00:24:43;;;;;;;10.07;8.77;;;2.50;99.90;;;;;;5017388;28;20589;-58
2021/04/15 00:27:20;;;;;;;9.30;8.40;;;2.50;99.90;;;;;;5013300;28;20622;-59
2021/04/15 00:29:48;;;;;;;11.17;8.83;;;2.50;99.90;;;;;;5019353;28;20692;-58
2021/04/15 00:32:17;;;;;;;9.80;8.47;;;2.40;99.90;;;;;;5015646;28;20624;-59
2021/04/15 00:34:54;;;;;;;9.30;8.30;;;2.40;99.90;;;;;;4996788;28;20634;-59
2021/04/15 00:37:29;;;;;;;9.47;8.47;;;2.40;99.90;;;;;;5018980;28;20709;-59
2021/04/15 00:39:57;;;;;;;8.83;7.87;;;2.40;99.90;;;;;;5021860;28;20713;-59
2021/04/15 00:42:34;;;;;;;9.03;8.13;;;2.50;99.90;;;;;;5023601;28;21173;-59
2021/04/15 00:45:13;;;;;;;8.73;7.53;;;2.40;99.90;;;;;;5020357;28;20798;-60
2021/04/15 00:47:49;;;;;;;11.80;8.00;;;2.40;99.90;;;;;;5025104;28;20602;-59
2021/04/15 00:50:30;;;;;;;9.07;7.90;;;2.30;99.90;;;;;;5025604;28;20669;-60
2021/04/15 00:53:17;;;;;;;9.70;8.13;;;2.40;99.90;;;;;;5030080;28;20610;-60
2021/04/15 00:55:56;;;;;;;;;;;;;;;;;;;;;
2021/04/15 00:58:27;;;;;;;9.63;8.00;;;2.30;99.90;;;;;;5016128;28;20664;-60
2021/04/15 01:00:58;;;;;;;10.00;9.00;;;2.40;99.90;;;;;;5017303;28;20599;-59
2021/04/15 01:03:27;;;;;;;9.70;7.93;;;2.30;99.90;;;;;;5022651;28;20658;-59
2021/04/15 01:05:52;;;;;;;10.50;7.90;;;2.30;99.90;;;;;;5018519;28;20718;-59
2021/04/15 01:08:19;;;;;;;9.50;7.80;;;2.20;99.90;;;;;;5012164;28;21129;-60
2021/04/15 01:11:08;;;;;;;11.67;8.90;;;2.20;99.90;;;;;;5015069;28;20204;-60
2021/04/15 01:13:50;;;;;;;9.37;8.40;;;2.20;99.90;;;;;;4998943;28;20635;-59
2021/04/15 01:16:34;;;;;;;9.20;8.03;;;2.20;99.90;;;;;;5019447;28;20921;-59
2021/04/15 01:19:47;;;;;;;9.30;8.10;;;2.20;99.90;;;;;;5011897;28;21002;-59
2021/04/15 01:22:31;;;;;;;8.20;7.40;;;2.10;99.90;;;;;;5016821;28;21284;-59
2021/04/15 01:25:08;;;;;;;10.10;8.60;;;2.10;99.90;;;;;;5021568;28;20669;-58
2021/04/15 01:27:49;;;;;;;9.87;8.47;;;2.00;99.90;;;;;;5016980;28;20603;-59
2021/04/15 01:30:39;;;;;;;10.30;8.10;;;2.00;99.90;;;;;;5020282;28;21150;-59
2021/04/15 01:33:13;;;;;;;11.23;8.67;;;2.00;99.90;;;;;;5025259;28;20616;-59
2021/04/15 01:36:02;;;;;;;10.47;8.40;;;2.00;99.90;;;;;;5020895;28;21151;-59
2021/04/15 01:38:36;;;;;;;10.70;8.77;;;1.90;99.90;;;;;;5022052;28;20735;-60
2021/04/15 01:41:31;;;;;;;13.93;9.37;;;1.90;99.90;;;;;;5033106;28;20599;-60
2021/04/15 01:44:38;;;;;;;10.33;9.03;;;1.90;99.90;;;;;;5022820;28;20651;-60
2021/04/15 01:47:09;;;;;;;9.83;8.30;;;1.90;99.90;;;;;;5022524;28;20748;-60
2021/04/15 01:49:55;;;;;;;9.20;8.20;;;1.90;99.90;;;;;;5026612;28;20655;-60
2021/04/15 01:52:29;;;;;;;11.50;9.90;;;1.80;99.90;;;;;;5018736;28;20627;-59
2021/04/15 01:55:14;;;;;;;11.00;9.37;;;1.90;99.90;;;;;;5020411;28;20748;-59
2021/04/15 01:58:01;;;;;;;10.87;8.40;;;1.90;99.90;;;;;;5002090;28;20678;-59
2021/04/15 02:00:32;;;;;;;10.87;9.30;;;1.90;99.90;;;;;;5010323;28;20603;-60
2021/04/15 02:03:05;;;;;;;11.70;9.40;;;1.90;99.90;;;;;;5012269;28;21167;-59
2021/04/15 02:05:39;;;;;;;14.60;10.20;;;1.80;99.90;;;;;;5008854;28;20752;-59
2021/04/15 02:08:46;;;;;;;12.87;10.20;;;1.80;99.90;;;;;;5016353;28;20717;-59
2021/04/15 02:11:40;;;;;;;10.23;9.00;;;1.80;99.90;;;;;;5010803;28;20729;-60
2021/04/15 02:14:17;;;;;;;12.40;9.93;;;1.70;99.90;;;;;;5020566;28;20602;-60
2021/04/15 02:16:53;;;;;;;11.77;9.40;;;1.70;99.90;;;;;;5010719;28;20759;-59
2021/04/15 02:19:33;;;;;;;11.53;9.80;;;1.60;99.90;;;;;;5002093;28;20657;-60
2021/04/15 02:21:58;;;;;;;10.90;9.77;;;1.70;99.90;;;;;;5004987;28;20643;-60
2021/04/15 02:25:07;;;;;;;10.77;9.67;;;1.60;99.90;;;;;;5014334;28;21244;-59
2021/04/15 02:27:49;;;;;;;13.00;10.10;;;1.70;99.90;;;;;;5019224;28;20216;-59
2021/04/15 02:30:29;;;;;;;15.80;10.57;;;1.70;99.90;;;;;;5000044;28;20845;-60
2021/04/15 02:33:26;;;;;;;11.17;9.80;;;1.70;99.90;;;;;;5012764;28;20619;-59
2021/04/15 02:36:01;;;;;;;12.00;9.80;;;1.70;99.90;;;;;;4933074;28;20739;-59
2021/04/15 02:39:01;;;;;;;13.50;9.77;;;1.70;99.90;;;;;;5015098;28;20673;-60
2021/04/15 02:41:32;;;;;;;10.97;9.87;;;1.70;99.90;;;;;;5031937;28;20625;-58
2021/04/15 02:44:08;;;;;;;11.40;9.77;;;1.60;99.90;;;;;;5039735;28;20634;-60
2021/04/15 02:46:41;;;;;;;13.50;10.13;;;1.70;99.90;;;;;;5023925;28;21221;-59
2021/04/15 02:49:12;;;;;;;12.30;10.47;;;1.60;99.90;;;;;;5022801;28;20713;-59
2021/04/15 02:51:45;;;;;;;11.53;10.33;;;1.40;99.90;;;;;;5008733;28;21448;-59
2021/04/15 02:54:14;;;;;;;12.20;9.83;;;1.70;99.90;;;;;;5022579;28;20677;-60
2021/04/15 02:56:51;;;;;;;12.00;10.10;;;1.60;99.90;;;;;;5009029;28;20734;-58
2021/04/15 02:59:34;;;;;;;12.63;10.23;;;1.60;99.90;;;;;;5019936;28;20659;-60
2021/04/15 03:02:18;;;;;;;13.90;9.40;;;1.60;99.90;;;;;;5019176;28;20627;-59
2021/04/15 03:04:57;;;;;;;13.47;10.33;;;1.60;99.90;;;;;;5001561;28;21875;-60
2021/04/15 03:07:29;;;;;;;13.07;9.50;;;1.60;99.90;;;;;;5010103;28;20620;-60
2021/04/15 03:10:14;;;;;;;10.93;9.00;;;1.50;99.90;;;;;;5017109;28;20934;-58
2021/04/15 03:12:51;;;;;;;12.40;9.77;;;1.50;99.90;;;;;;5013955;28;20603;-60
2021/04/15 03:15:28;;;;;;;10.60;9.50;;;1.50;99.90;;;;;;5012885;28;21044;-60
2021/04/15 03:18:05;;;;;;;13.20;10.10;;;1.60;99.90;;;;;;5045223;22;20670;-63
2021/04/15 03:20:46;;;;;;;10.60;9.37;;;1.60;99.90;;;;;;5022132;28;21234;-62
2021/04/15 03:23:32;;;;;;;11.80;10.20;;;1.50;99.90;;;;;;5012005;28;20602;-63
2021/04/15 03:26:03;;;;;;;13.57;9.40;;;1.50;99.90;;;;;;5017322;28;20654;-62
2021/04/15 03:28:45;;;;;;;11.00;9.90;;;1.40;99.90;;;;;;4988587;28;20655;-62
2021/04/15 03:31:37;;;;;;;;;;;;;;;;;;;;;
2021/04/15 03:34:10;;;;;;;12.73;9.43;;;1.40;99.90;;;;;;4996953;28;20627;-62
2021/04/15 03:36:47;;;;;;;11.20;10.00;;;1.50;99.90;;;;;;4993002;28;20665;-63
2021/04/15 03:39:23;;;;;;;11.87;9.90;;;1.40;99.90;;;;;;4992620;28;20663;-63
2021/04/15 03:41:57;;;;;;;10.10;9.03;;;1.40;99.90;;;;;;4978965;28;20616;-63
2021/04/15 03:44:40;;;;;;;11.33;10.13;;;1.40;99.90;;;;;;4996855;28;20612;-61
2021/04/15 03:47:21;;;;;;;13.50;10.60;;;1.30;99.90;;;;;;4994863;28;20671;-63
2021/04/15 03:50:09;;;;;;;10.00;9.00;;;1.30;99.90;;;;;;4992781;28;20695;-62
2021/04/15 03:52:58;;;;;;;12.40;9.97;;;1.20;99.90;;;;;;4980661;28;20714;-62
2021/04/15 03:55:32;;;;;;;11.03;9.77;;;1.30;99.90;;;;;;5001613;28;20648;-63
2021/04/15 03:58:21;;;;;;;11.93;10.07;;;1.30;99.90;;;;;;4998067;28;20624;-62
2021/04/15 04:00:56;;;;;;;11.27;9.60;;;1.30;99.90;;;;;;4968841;28;20631;-64
2021/04/15 04:03:26;;;;;;;10.80;9.70;;;1.40;99.90;;;;;;4999567;28;20616;-65
2021/04/15 04:06:20;;;;;;;10.43;9.33;;;1.30;99.90;;;;;;4995601;28;21031;-65
2021/04/15 04:08:59;;;;;;;11.40;9.90;;;1.30;99.90;;;;;;5001096;28;21232;-64
2021/04/15 04:11:37;;;;;;;12.63;9.83;;;1.30;99.90;;;;;;5002579;28;20595;-64
2021/04/15 04:14:16;;;;;;;12.90;10.00;;;1.30;99.90;;;;;;4983122;28;20622;-65
2021/04/15 04:16:50;;;;;;;10.20;9.20;;;1.30;99.90;;;;;;4999427;28;20689;-63
2021/04/15 04:19:27;;;;;;;12.57;10.00;;;1.20;99.90;;;;;;4983288;28;20702;-63
2021/04/15 04:22:07;;;;;;;12.43;10.60;;;1.30;99.90;;;;;;4991122;28;21169;-64
2021/04/15 04:24:44;;;;;;;10.43;9.40;;;1.30;99.90;;;;;;4991616;28;20735;-65
2021/04/15 04:27:27;;;;;;;;;;;;;;;;;;;;;
2021/04/15 04:30:04;;;;;;;11.90;8.97;;;1.20;99.90;;;;;;4995814;28;20650;-63
2021/04/15 04:32:34;;;;;;;12.13;9.10;;;1.20;99.90;;;;;;4995117;28;20632;-63
2021/04/15 04:35:09;;;;;;;11.10;10.03;;;1.20;99.90;;;;;;4993336;28;20637;-63
2021/04/15 04:37:52;;;;;;;11.07;9.90;;;1.20;99.90;;;;;;4982128;28;20816;-63
2021/04/15 04:40:36;;;;;;;13.50;10.17;;;1.20;99.90;;;;;;4990604;28;20624;-63
2021/04/15 04:43:25;;;;;;;11.40;9.70;;;1.20;99.90;;;;;;4996305;28;20592;-63
2021/04/15 04:46:33;;;;;;;13.80;10.53;;;1.20;99.90;;;;;;5001255;28;20636;-65
2021/04/15 04:49:17;;;;;;;12.40;10.53;;;1.20;99.90;;;;;;4975292;28;20648;-65
2021/04/15 04:52:27;;;;;;;12.77;9.97;;;1.20;99.90;;;;;;5001024;28;20594;-65
2021/04/15 04:55:13;;;;;;;10.93;9.63;;;1.20;99.90;;;;;;4990738;28;20754;-65
2021/04/15 04:57:52;;;;;;;12.40;11.20;;;1.20;99.90;;;;;;4991808;28;20644;-65
2021/04/15 05:00:21;;;;;;;10.73;9.43;;;1.20;99.90;;;;;;4994388;28;20592;-65
2021/04/15 05:02:52;;;;;;;12.50;9.70;;;1.10;99.90;;;;;;4980108;28;21227;-66
2021/04/15 05:05:20;;;;;;;11.40;10.20;;;1.20;99.90;;;;;;4968949;28;20991;-66
2021/04/15 05:07:47;;;;;;;11.40;10.10;;;1.20;99.90;;;;;;4985981;28;20615;-66
2021/04/15 05:10:26;;;;;;;11.27;9.77;;;1.20;99.90;;;;;;4985457;28;21308;-65
2021/04/15 05:13:04;;;;;;;10.67;9.43;;;1.20;99.90;;;;;;4990428;28;21268;-65
2021/04/15 05:15:30;;;;;;;11.70;10.50;;;1.20;99.90;;;;;;4988396;28;20654;-66
2021/04/15 05:17:56;;;;;;;11.60;10.40;;;1.00;99.90;;;;;;4986919;28;20955;-65
2021/04/15 05:20:24;;;;;;;15.10;10.17;;;1.20;99.90;;;;;;4991705;28;20189;-65
2021/04/15 05:23:18;;;;;;;11.97;10.67;;;1.30;99.90;;;;;;4992879;28;20264;-65
2021/04/15 05:26:09;;;;;;;11.13;10.03;;;1.20;99.90;;;;;;4999817;28;20746;-64
2021/04/15 05:28:38;;;;;;;11.20;9.97;;;1.30;99.90;;;;;;4984211;28;20682;-68
2021/04/15 05:31:08;;;;;;;12.43;10.60;;;1.30;99.90;;;;;;4991267;28;20667;-65
2021/04/15 05:33:38;;;;;;;12.30;9.50;;;1.30;99.90;;;;;;4996868;28;20604;-66
2021/04/15 05:36:04;;;;;;;12.30;11.00;;;1.40;99.90;;;;;;4984574;28;21615;-66
2021/04/15 05:38:43;;;;;;;12.30;10.80;;;1.40;99.90;;;;;;4994145;28;20679;-66
2021/04/15 05:41:16;;;;;;;10.90;9.77;;;1.40;99.90;;;;;;4993211;28;20174;-67
2021/04/15 05:43:49;;;;;;;12.00;10.80;;;1.40;99.90;;;;;;4992185;28;20670;-68
2021/04/15 05:46:20;;;;;;;12.47;11.10;;;1.50;99.90;;;;;;4997722;28;20711;-67
2021/04/15 05:48:50;;;;;;;12.07;10.87;;;1.60;99.90;;;;;;4985108;28;20680;-65
2021/04/15 05:51:24;;;;;;;12.77;10.97;;;1.60;99.90;;;;;;5001989;28;20694;-65
2021/04/15 05:53:59;;;;;;;12.73;11.40;;;1.70;99.90;;;;;;4983783;28;21194;-66
2021/04/15 05:56:35;;;;;;;15.50;10.80;;;1.70;99.90;;;;;;5004417;28;21463;-67
2021/04/15 05:59:36;;;;;;;13.20;10.60;;;1.80;99.90;;;;;;4996204;28;20842;-63
2021/04/15 06:02:28;;;;;;;13.23;11.20;;;1.80;99.90;;;;;;4986299;28;20628;-67
2021/04/15 06:05:01;;;;;;;12.10;10.90;;;1.90;99.90;;;;;;4966710;28;20753;-65
2021/04/15 06:07:27;;;;;;;14.13;10.50;;;2.00;99.90;;;;;;4959955;28;20755;-66
2021/04/15 06:09:54;;;;;;;13.03;11.67;;;2.00;99.90;;;;;;4987814;28;20683;-67
2021/04/15 06:12:46;;;;;;;13.50;12.20;;;2.10;99.90;;;;;;4992309;28;20647;-66
2021/04/15 06:15:30;;;;;;;12.73;11.43;;;2.10;99.90;;;;;;4994024;28;20652;-66
2021/04/15 06:17:58;;;;;;;14.40;11.47;;;2.20;99.90;;;;;;4996450;28;20706;-68
2021/04/15 06:20:37;;;;;;;13.87;12.17;;;2.20;99.90;;;;;;4997764;28;21133;-67
2021/04/15 06:23:19;;;;;;;13.57;12.20;;;2.30;99.90;;;;;;4991788;28;20588;-65
2021/04/15 06:25:47;;;;;;;12.50;11.00;;;2.30;99.90;;;;;;4996728;28;20650;-65
2021/04/15 06:28:25;;;;;;;12.93;11.63;;;2.40;99.90;;;;;;4990378;28;20644;-67
2021/04/15 06:31:09;;;;;;;13.00;11.60;;;2.40;99.90;;;;;;4992289;28;20634;-65
2021/04/15 06:33:35;;;;;;;12.33;11.03;;;2.50;99.90;;;;;;4993124;28;20743;-65
2021/04/15 06:36:04;;;;;;;12.53;11.23;;;2.60;99.90;;;;;;4999257;28;20969;-65
2021/04/15 06:38:43;;;;;;;14.30;11.17;;;2.90;99.90;;;;;;4986145;28;21027;-67
2021/04/15 06:41:20;;;;;;;12.33;10.70;;;2.70;99.90;;;;;;4993084;28;21143;-65
2021/04/15 06:43:54;;;;;;;13.97;11.50;;;2.90;99.90;;;;;;4985958;28;20653;-64
2021/04/15 06:46:44;;;;;;;12.57;10.50;;;2.90;99.90;;;;;;4996303;28;20644;-64
2021/04/15 06:49:21;;;;;;;14.77;10.67;;;3.00;99.90;;;;;;4990447;28;20660;-68
2021/04/15 06:51:49;;;;;;;12.90;10.63;;;3.10;99.90;;;;;;4991045;28;20938;-65
2021/04/15 06:54:50;;;;;;;12.70;11.40;;;3.20;99.90;;;;;;4995927;28;20653;-65
2021/04/15 06:57:38;;;;;;;11.50;10.27;;;3.40;99.90;;;;;;4993532;28;20747;-65
2021/04/15 07:00:19;;;;;;;10.87;9.77;;;3.50;99.90;;;;;;4997123;28;20700;-65
2021/04/15 07:03:05;;;;;;;14.97;10.60;;;3.60;99.90;;;;;;4995084;28;20592;-64
2021/04/15 07:05:36;;;;;;;11.40;9.93;;;3.70;99.90;;;;;;4995219;28;20966;-63
2021/04/15 07:08:08;;;;;;;11.20;9.97;;;3.90;99.90;;;;;;4991234;28;20600;-64
2021/04/15 07:11:11;;;;;;;11.17;9.23;;;4.00;99.90;;;;;;4985337;28;20692;-65
2021/04/15 07:14:00;;;;;;;11.00;9.10;;;4.10;99.90;;;;;;4989487;28;20617;-65
2021/04/15 07:16:51;;;;;;;8.17;7.17;;;4.30;99.90;;;;;;4987864;28;20636;-66
2021/04/15 07:19:28;;;;;;;6.90;6.20;;;4.50;99.90;;;;;;4991062;28;20660;-67
2021/04/15 07:22:04;;;;;;;10.20;7.13;;;4.60;99.90;;;;;;4984776;28;21108;-64
2021/04/15 07:24:46;;;;;;;8.00;6.50;;;4.80;99.90;;;;;;4984603;28;21644;-65
2021/04/15 07:27:31;;;;;;;8.70;7.60;;;4.90;99.90;;;;;;4971770;28;21590;-64
2021/04/15 07:30:15;;;;;;;7.57;6.03;;;5.10;99.90;;;;;;4971169;28;20668;-66
2021/04/15 07:33:09;;;;;;;5.97;5.33;;;5.30;99.90;;;;;;4994105;28;20708;-63
2021/04/15 07:36:05;;;;;;;5.50;4.80;;;5.40;99.90;;;;;;4986367;28;21250;-65
2021/04/15 07:39:10;;;;;;;5.00;4.00;;;5.60;99.90;;;;;;4985174;28;20676;-64
2021/04/15 07:41:57;;;;;;;6.47;4.03;;;5.80;99.90;;;;;;4933874;28;20770;-64
2021/04/15 07:44:52;;;;;;;4.53;3.83;;;5.90;99.90;;;;;;4989662;28;21257;-65
2021/04/15 07:47:41;;;;;;;4.63;4.13;;;6.10;99.90;;;;;;4981934;28;20684;-67
2021/04/15 07:50:31;;;;;;;7.30;3.70;;;6.20;99.90;;;;;;4984554;28;20671;-65
2021/04/15 07:53:12;;;;;;;5.33;4.10;;;6.30;99.90;;;;;;4989581;28;20624;-65
2021/04/15 07:56:05;;;;;;;4.73;3.70;;;6.40;99.90;;;;;;4987310;28;20729;-66
2021/04/15 07:58:55;;;;;;;3.30;2.80;;;6.50;99.90;;;;;;4986529;28;21188;-65
2021/04/15 08:01:45;;;;;;;3.43;3.10;;;6.60;99.90;;;;;;4987051;28;20592;-64
2021/04/15 08:04:39;;;;;;;3.57;2.70;;;6.70;99.90;;;;;;4988207;28;20714;-68
2021/04/15 08:07:28;;;;;;;3.13;2.83;;;6.80;99.90;;;;;;4987191;28;20737;-65
2021/04/15 08:10:11;;;;;;;3.40;3.10;;;6.90;99.90;;;;;;4990969;28;20640;-63
2021/04/15 08:12:45;;;;;;;3.40;2.77;;;7.10;99.90;;;;;;4999927;28;20589;-65
2021/04/15 08:15:36;;;;;;;5.23;3.23;;;7.20;99.90;;;;;;5001570;28;20620;-64
2021/04/15 08:18:19;;;;;;;2.97;2.70;;;7.30;99.90;;;;;;4993403;28;20648;-63
2021/04/15 08:20:57;;;;;;;4.23;3.20;;;7.40;99.90;;;;;;4988171;28;20738;-64
2021/04/15 08:24:00;;;;;;;2.90;2.60;;;7.50;99.90;;;;;;4987235;28;20605;-67
2021/04/15 08:27:03;;;;;;;3.20;2.30;;;7.60;99.90;;;;;;4990621;28;20683;-63
2021/04/15 08:30:06;;;;;;;3.50;2.30;;;7.70;99.90;;;;;;4989659;28;20694;-65
2021/04/15 08:32:46;;;;;;;2.80;2.40;;;7.70;99.90;;;;;;4989992;28;20634;-68
2021/04/15 08:35:27;;;;;;;3.03;2.07;;;7.80;99.90;;;;;;4988284;28;20647;-67
2021/04/15 08:38:15;;;;;;;3.43;2.27;;;7.90;99.90;;;;;;4990798;28;20697;-66
2021/04/15 08:41:21;;;;;;;2.30;2.10;;;8.00;99.90;;;;;;4994187;28;21047;-64
2021/04/15 08:43:51;;;;;;;6.17;1.93;;;8.10;99.90;;;;;;4986516;28;20670;-65
2021/04/15 08:46:40;;;;;;;1.77;1.50;;;8.20;99.90;;;;;;4993734;28;20771;-68
2021/04/15 08:49:10;;;;;;;3.63;1.50;;;8.40;99.90;;;;;;4994406;28;20692;-66
2021/04/15 08:52:15;;;;;;;1.80;1.40;;;8.40;99.90;;;;;;4993320;28;20646;-67
2021/04/15 08:55:14;;;;;;;1.63;1.50;;;8.50;99.90;;;;;;4985942;28;20623;-65
2021/04/15 08:58:01;;;;;;;1.83;1.50;;;8.60;99.90;;;;;;4991681;28;20651;-64
2021/04/15 09:00:33;;;;;;;2.13;1.70;;;8.80;99.90;;;;;;4996330;28;20606;-68
2021/04/15 09:03:12;;;;;;;2.20;1.67;;;8.90;99.90;;;;;;4990953;28;21268;-67
2021/04/15 09:06:13;;;;;;;2.10;1.50;;;8.90;99.90;;;;;;4990568;28;21312;-66
2021/04/15 09:09:12;;;;;;;1.40;1.20;;;9.00;99.90;;;;;;4990802;28;20651;-67
2021/04/15 09:11:59;;;;;;;1.07;0.97;;;9.10;99.90;;;;;;4990362;28;21249;-65
2021/04/15 09:14:50;;;;;;;2.40;1.37;;;9.30;99.90;;;;;;4991524;28;21007;-66
2021/04/15 09:17:25;;;;;;;1.00;1.00;;;9.40;99.90;;;;;;4988275;28;20648;-67
2021/04/15 09:20:14;;;;;;;1.20;1.10;;;9.50;99.90;;;;;;5044924;22;21227;-65
2021/04/15 09:22:58;;;;;;;0.80;0.80;;;9.50;99.90;;;;;;5062185;28;20705;-64
2021/04/15 09:25:59;;;;;;;1.40;1.30;;;9.60;99.90;;;;;;5047835;28;20760;-62
2021/04/15 09:29:03;;;;;;;1.00;0.90;;;9.70;99.90;;;;;;5050747;28;20625;-64
2021/04/15 09:31:49;;;;;;;1.00;0.90;;;9.70;99.90;;;;;;4966685;28;21567;-64
2021/04/15 09:34:49;;;;;;;1.43;0.90;;;9.80;99.90;;;;;;5058031;28;21124;-64
2021/04/15 09:37:26;;;;;;;1.30;1.00;;;9.90;99.90;;;;;;5048973;28;20645;-64
2021/04/15 09:40:01;;;;;;;0.90;0.90;;;10.00;99.90;;;;;;5049616;28;20645;-62
2021/04/15 09:42:40;;;;;;;0.80;0.70;;;10.10;99.90;;;;;;5054929;28;20786;-63
2021/04/15 09:45:17;;;;;;;1.30;1.10;;;10.20;99.90;;;;;;5041228;28;20625;-66
2021/04/15 09:48:08;;;;;;;1.30;1.20;;;10.30;99.90;;;;;;5049807;28;20812;-63
2021/04/15 09:50:50;;;;;;;0.90;0.90;;;10.40;99.90;;;;;;5049795;28;20588;-62
2021/04/15 09:53:26;;;;;;;0.90;0.90;;;10.40;99.90;;;;;;5049284;28;20701;-64
2021/04/15 09:56:12;;;;;;;3.57;1.30;;;10.50;99.90;;;;;;5051177;28;20663;-64
2021/04/15 09:58:51;;;;;;;1.57;1.20;;;10.50;99.90;;;;;;5047404;28;20737;-64
2021/04/15 10:01:29;;;;;;;1.20;1.10;;;10.60;99.90;;;;;;5050570;28;21866;-64
2021/04/15 10:04:02;;;;;;;1.43;0.80;;;10.60;99.90;;;;;;5043981;28;20589;-64
2021/04/15 10:06:33;;;;;;;0.90;0.80;;;10.60;99.90;;;;;;5042243;28;20637;-62
2021/04/15 10:09:17;;;;;;;0.70;0.70;;;10.60;99.90;;;;;;5046518;28;21260;-64
2021/04/15 10:12:16;;;;;;;0.97;0.90;;;10.60;99.90;;;;;;5045959;28;21176;-65
2021/04/15 10:15:06;;;;;;;0.83;0.83;;;10.70;99.90;;;;;;5052521;28;20828;-64
2021/04/15 10:17:55;;;;;;;1.07;0.80;;;10.80;99.90;;;;;;5051131;28;20653;-65
2021/04/15 10:20:33;;;;;;;1.27;1.17;;;10.80;99.90;;;;;;5047904;28;20654;-63
2021/04/15 10:23:36;;;;;;;3.97;1.13;;;10.80;99.90;;;;;;5051941;28;20665;-65
2021/04/15 10:26:41;;;;;;;1.10;1.00;;;10.90;99.90;;;;;;5026304;28;21000;-64
2021/04/15 10:29:15;;;;;;;0.80;0.80;;;10.80;99.90;;;;;;5053752;28;20727;-64
2021/04/15 10:32:06;;;;;;;0.80;0.77;;;10.90;99.90;;;;;;5055163;28;20615;-65
2021/04/15 10:35:03;;;;;;;1.03;1.00;;;10.90;99.90;;;;;;5052103;28;21442;-64
2021/04/15 10:38:05;;;;;;;1.40;1.03;;;10.90;99.90;;;;;;5047976;28;20884;-64
2021/04/15 10:40:50;;;;;;;1.63;0.90;;;10.90;99.90;;;;;;5053126;28;21600;-65
2021/04/15 10:43:47;;;;;;;1.87;1.40;;;11.00;99.90;;;;;;5052856;28;20630;-65
2021/04/15 10:46:21;;;;;;;1.63;0.90;;;11.00;99.90;;;;;;5045893;28;21028;-65
2021/04/15 10:48:55;;;;;;;1.23;1.13;;;11.00;99.90;;;;;;5053406;28;20732;-64
2021/04/15 10:51:34;;;;;;;2.07;1.10;;;11.00;99.90;;;;;;5054754;28;20664;-65
2021/04/15 10:54:29;;;;;;;1.40;1.30;;;11.10;99.90;;;;;;5054048;28;20645;-65
2021/04/15 10:57:02;;;;;;;1.70;0.97;;;11.10;99.90;;;;;;5053848;28;20642;-64
2021/04/15 10:59:39;;;;;;;1.10;1.00;;;11.10;99.90;;;;;;5047645;28;21254;-64
2021/04/15 11:02:46;;;;;;;1.10;1.00;;;11.20;99.90;;;;;;5050765;28;20618;-64
2021/04/15 11:05:39;;;;;;;3.00;1.30;;;11.10;99.90;;;;;;5056053;28;20633;-64
2021/04/15 11:08:09;;;;;;;1.20;1.00;;;11.10;99.90;;;;;;5048279;28;20633;-63
2021/04/15 11:10:36;;;;;;;1.10;1.10;;;11.20;99.90;;;;;;5058349;28;20609;-64
2021/04/15 11:13:38;;;;;;;1.50;1.30;;;11.20;99.90;;;;;;5049776;28;21325;-62
2021/04/15 11:16:10;;;;;;;1.17;1.07;;;11.20;99.90;;;;;;4979146;28;20637;-64
2021/04/15 11:18:37;;;;;;;1.50;1.20;;;11.20;99.70;;;;;;5043473;28;20791;-63
2021/04/15 11:21:21;;;;;;;1.30;0.90;;;11.20;99.90;;;;;;5047718;28;20590;-64
2021/04/15 11:23:48;;;;;;;2.33;1.40;;;11.20;99.90;;;;;;5051394;28;20617;-64
2021/04/15 11:26:24;;;;;;;1.40;1.30;;;11.10;99.90;;;;;;5056615;28;20629;-63
2021/04/15 11:28:54;;;;;;;1.30;1.20;;;11.10;99.90;;;;;;5064997;28;20726;-64
2021/04/15 11:31:40;;;;;;;1.57;1.43;;;11.10;99.90;;;;;;5053882;28;20701;-64
2021/04/15 11:34:09;;;;;;;1.20;1.10;;;11.10;99.90;;;;;;5057150;28;20673;-62
2021/04/15 11:36:39;;;;;;;3.00;1.70;;;11.20;99.90;;;;;;5064303;28;20645;-62
2021/04/15 11:39:04;;;;;;;1.47;1.30;;;11.30;99.90;;;;;;5056777;28;20658;-64
2021/04/15 11:41:34;;;;;;;1.33;1.23;;;11.50;99.90;;;;;;5051603;28;20615;-64
2021/04/15 11:44:09;;;;;;;1.50;1.40;;;11.70;99.90;;;;;;5052048;28;20179;-64
2021/04/15 11:46:46;;;;;;;1.57;1.47;;;11.90;99.90;;;;;;5055903;28;20636;-64
2021/04/15 11:49:32;;;;;;;1.60;1.50;;;12.00;99.90;;;;;;5051886;28;21164;-63
2021/04/15 11:52:24;;;;;;;2.33;1.40;;;11.90;99.90;;;;;;5037612;28;20697;-64
2021/04/15 11:54:52;;;;;;;1.73;1.00;;;11.90;99.90;;;;;;5052667;28;20601;-64
2021/04/15 11:57:29;;;;;;;1.40;0.90;;;11.80;99.70;;;;;;5050136;28;20679;-63
2021/04/15 12:00:05;;;;;;;1.47;1.20;;;11.70;99.90;;;;;;5049550;28;20642;-63
2021/04/15 12:02:38;;;;;;;1.23;1.13;;;11.70;99.90;;;;;;5049663;28;20613;-64
2021/04/15 12:05:21;;;;;;;1.20;1.10;;;11.60;99.90;;;;;;5054218;28;20764;-64
2021/04/15 12:08:09;;;;;;;2.07;1.20;;;11.60;99.90;;;;;;5050895;28;20694;-64
2021/04/15 12:10:44;;;;;;;1.50;1.40;;;11.60;99.90;;;;;;5057957;28;20609;-63
2021/04/15 12:13:44;;;;;;;1.60;1.37;;;11.70;99.90;;;;;;5057130;28;20634;-62
2021/04/15 12:16:19;;;;;;;1.10;1.00;;;11.70;99.90;;;;;;5049073;28;21830;-64
2021/04/15 12:19:02;;;;;;;1.37;1.27;;;11.70;99.90;;;;;;5049751;28;20693;-64
2021/04/15 12:21:40;;;;;;;1.30;1.20;;;11.90;99.80;;;;;;5054727;28;20660;-64
2021/04/15 12:24:34;;;;;;;2.53;1.83;;;11.90;98.90;;;;;;5054602;28;20692;-64
2021/04/15 12:26:59;;;;;;;1.47;1.37;;;11.90;98.60;;;;;;5056059;28;21193;-64
2021/04/15 12:29:31;;;;;;;1.20;1.10;;;11.90;97.60;;;;;;5057963;28;20651;-65
2021/04/15 12:32:07;;;;;;;1.27;1.00;;;11.80;97.80;;;;;;5055013;28;20847;-65
2021/04/15 12:35:10;;;;;;;1.20;1.10;;;11.80;96.60;;;;;;5056108;28;20685;-64
2021/04/15 12:37:42;;;;;;;1.13;1.03;;;11.80;96.20;;;;;;5053287;28;21155;-65
2021/04/15 12:40:18;;;;;;;1.73;1.03;;;11.70;95.70;;;;;;5055495;28;20724;-64
2021/04/15 12:42:46;;;;;;;1.53;0.90;;;11.70;96.20;;;;;;5054000;28;20913;-64
2021/04/15 12:45:23;;;;;;;1.37;0.90;;;11.70;96.80;;;;;;5057185;28;20737;-64
2021/04/15 12:47:51;;;;;;;1.83;0.87;;;11.70;94.30;;;;;;5054689;28;20632;-64
2021/04/15 12:50:17;;;;;;;1.10;0.93;;;11.80;93.50;;;;;;5053116;28;20715;-64
2021/04/15 12:52:43;;;;;;;1.53;1.43;;;11.90;94.00;;;;;;5059689;28;21180;-66
2021/04/15 12:55:15;;;;;;;1.67;1.10;;;12.10;93.60;;;;;;5052828;28;20636;-63
2021/04/15 12:57:41;;;;;;;2.00;0.97;;;12.30;94.70;;;;;;5055160;28;20242;-63
2021/04/15 13:00:12;;;;;;;1.00;0.90;;;12.50;93.90;;;;;;5055078;28;21068;-64
2021/04/15 13:02:38;;;;;;;0.90;0.70;;;12.80;95.40;;;;;;5047435;28;20613;-62
2021/04/15 13:05:12;;;;;;;1.03;0.97;;;13.10;94.30;;;;;;5049792;28;20632;-64
2021/04/15 13:07:42;;;;;;;2.70;0.90;;;13.30;93.20;;;;;;5049777;28;20777;-63
2021/04/15 13:10:14;;;;;;;0.90;0.90;;;13.50;94.50;;;;;;5048538;28;21258;-64
2021/04/15 13:12:44;;;;;;;2.10;0.97;;;13.70;93.80;;;;;;5047888;28;20617;-61
2021/04/15 13:15:37;;;;;;;1.20;1.10;;;13.90;93.80;;;;;;5042421;28;20803;-64
2021/04/15 13:18:05;;;;;;;1.20;1.10;;;14.10;92.80;;;;;;5042928;28;20716;-63
2021/04/15 13:20:30;;;;;;;1.13;1.10;;;14.00;92.20;;;;;;5043185;28;21218;-64
2021/04/15 13:23:08;;;;;;;1.57;1.47;;;14.00;92.60;;;;;;5047596;28;20997;-64
2021/04/15 13:26:00;;;;;;;1.20;1.10;;;13.80;93.20;;;;;;5055635;28;20253;-64
2021/04/15 13:28:45;;;;;;;1.47;1.10;;;13.70;93.90;;;;;;5021513;28;20621;-64
2021/04/15 13:31:31;;;;;;;1.90;1.50;;;13.50;94.60;;;;;;5052303;28;20625;-64
2021/04/15 13:34:04;;;;;;;5.23;1.43;;;13.40;95.40;;;;;;5056684;28;20686;-64
2021/04/15 13:36:30;;;;;;;2.93;1.10;;;13.40;95.10;;;;;;5053934;28;20642;-64
2021/04/15 13:39:27;;;;;;;1.67;1.57;;;13.30;95.80;;;;;;5060246;28;20653;-65
2021/04/15 13:41:53;;;;;;;1.40;1.00;;;13.20;95.50;;;;;;5050651;28;20934;-60
2021/04/15 13:44:52;;;;;;;0.87;0.87;;;13.10;94.30;;;;;;5050040;28;20602;-61
2021/04/15 13:47:40;;;;;;;1.30;1.20;;;13.10;93.10;;;;;;5057263;28;20223;-59
2021/04/15 13:50:05;;;;;;;1.37;1.27;;;13.10;93.50;;;;;;5050272;28;24372;-62
2021/04/15 13:52:36;;;;;;;1.13;1.03;;;13.10;93.30;;;;;;5047799;28;20606;-61
2021/04/15 13:55:31;;;;;;;1.10;1.00;;;13.20;92.20;;;;;;5053298;28;20223;-63
2021/04/15 13:57:57;;;;;;;1.30;0.90;;;13.20;90.40;;;;;;5051082;28;20718;-67
2021/04/15 14:00:42;;;;;;;0.90;0.90;;;13.10;90.80;;;;;;5051637;28;21459;-63